Time;durP1;ratioP1;P1;durP2;ratioP2;P2;SDS_P1;SDS_P2;PMS_P1;PMS_P2;Temp;Humidity;BMP_temperature;BMP_pressure;BME280_temperature;BME280_humidity;BME280_pressure;Samples;Min_cycle;Max_cycle;Signal;HPM_P1;HPM_P2
2022/05/16 05:41:31;;;;;;;8.30;5.10;;;;;;;19.36;53.27;100925.63;4929782;23;20068;-82
2022/05/16 05:43:57;;;;;;;10.77;6.13;;;;;;;19.31;52.55;100921.31;4862427;29;21110;-79
2022/05/16 08:31:20;;;;;;;11.65;5.25;;;;;;;22.09;46.47;101011.78;3150577;27;20135;-73
2022/05/16 08:33:45;;;;;;;24.65;6.18;;;;;;;21.67;47.04;100979.53;4899604;29;20040;-73
2022/05/16 08:42:04;;;;;;;18.05;8.60;;;;;;;21.27;48.03;100972.94;4898659;29;20145;-75
2022/05/16 08:44:45;;;;;;;16.55;6.72;;;;;;;21.31;48.23;100955.91;4894893;29;20060;-73
2022/05/16 08:47:48;;;;;;;8.82;4.43;;;;;;;21.83;47.51;100998.56;4898418;29;20067;-74
2022/05/16 08:50:32;;;;;;;16.33;4.70;;;;;;;22.31;44.88;100994.94;4899536;29;20071;-74
2022/05/16 08:53:06;;;;;;;9.10;3.45;;;;;;;21.46;46.37;100971.38;4895997;29;20100;-73
2022/05/16 08:55:41;;;;;;;11.85;4.75;;;;;;;21.34;47.18;100958.44;4901684;29;20049;-74
2022/05/16 08:58:15;;;;;;;10.50;4.60;;;;;;;21.82;47.09;100962.94;4895385;29;20055;-74
2022/05/16 09:01:06;;;;;;;9.32;5.00;;;;;;;22.54;48.51;100999.38;4907154;29;20084;-74
2022/05/16 09:03:48;;;;;;;6.97;3.25;;;;;;;22.72;47.25;100953.13;4900196;29;20120;-74
2022/05/16 09:06:21;;;;;;;16.60;5.32;;;;;;;23.23;45.57;100948.34;4896801;29;20041;-73
2022/05/16 09:09:22;;;;;;;10.88;5.60;;;;;;;23.49;46.05;100975.75;4894264;29;20123;-75
2022/05/16 09:12:04;;;;;;;22.60;7.90;;;;;;;24.29;45.04;100958.69;4896856;29;20056;-75
2022/05/16 09:14:38;;;;;;;18.83;6.35;;;;;;;22.96;45.56;100948.53;4896722;29;20064;-75
2022/05/16 09:17:30;;;;;;;13.68;7.30;;;;;;;23.17;47.03;100999.47;4910802;29;20053;-74
2022/05/16 09:20:01;;;;;;;15.80;7.70;;;;;;;23.13;46.54;100957.69;4878227;29;20144;-73
2022/05/16 09:22:43;;;;;;;18.50;10.48;;;;;;;23.75;48.23;100956.72;4891596;29;20067;-74
2022/05/16 09:25:08;;;;;;;24.55;9.07;;;;;;;23.71;45.28;100989.91;4901292;29;20044;-73
2022/05/16 09:30:36;;;;;;;16.55;10.07;;;;;;;23.36;44.68;100949.50;4888588;29;20064;-72
2022/05/16 09:33:24;;;;;;;22.33;9.20;;;;;;;23.88;44.58;100946.31;4897392;29;20092;-72
2022/05/16 09:36:01;;;;;;;15.55;7.90;;;;;;;23.48;44.79;100990.09;4881904;29;20471;-72
2022/05/16 09:38:31;;;;;;;18.05;10.38;;;;;;;23.97;41.50;100943.16;4895079;29;20052;-72
2022/05/16 09:41:05;;;;;;;18.50;9.57;;;;;;;23.24;43.11;100939.34;4894660;29;20056;-72
2022/05/16 09:43:41;;;;;;;23.30;8.85;;;;;;;23.57;42.93;100936.09;4895107;29;20063;-74
2022/05/16 09:46:34;;;;;;;23.33;10.82;;;;;;;23.95;42.13;100969.22;4891153;29;20056;-73
2022/05/16 09:49:06;;;;;;;16.52;9.32;;;;;;;23.76;41.37;100944.19;4891621;29;20052;-73
2022/05/16 09:51:49;;;;;;;37.22;16.38;;;;;;;24.94;41.15;100961.75;4890232;29;20040;-73
2022/05/16 09:54:31;;;;;;;37.40;16.60;;;;;;;24.43;40.74;100929.34;4902166;29;20509;-72
2022/05/16 09:57:04;;;;;;;34.97;15.30;;;;;;;24.99;38.93;100941.75;4890873;29;20087;-73
2022/05/16 09:59:39;;;;;;;22.23;7.78;;;;;;;24.61;40.09;100966.03;4893672;29;20044;-73
2022/05/16 10:02:11;;;;;;;18.92;8.32;;;;;;;24.23;40.86;100917.81;4889172;29;20049;-73
2022/05/16 10:04:43;;;;;;;24.60;11.13;;;;;;;24.25;41.52;100924.88;4891891;29;20135;-74
2022/05/16 10:07:13;;;;;;;25.42;12.25;;;;;;;24.72;40.22;100951.22;4892803;29;20048;-75
2022/05/16 10:09:53;;;;;;;35.17;16.55;;;;;;;24.34;38.70;100952.13;4898366;29;20056;-74
2022/05/16 10:12:22;;;;;;;24.13;13.57;;;;;;;24.27;38.97;100950.69;4902632;29;20124;-74
2022/05/16 10:14:49;;;;;;;41.58;18.42;;;;;;;24.71;38.21;100946.78;4893953;29;20108;-75
2022/05/16 10:17:37;;;;;;;52.75;17.77;;;;;;;25.34;37.48;100906.81;4889731;29;20143;-76
2022/05/16 10:20:39;;;;;;;66.15;20.63;;;;;;;25.25;37.39;100916.22;4890269;29;20055;-73
2022/05/16 10:23:18;;;;;;;58.40;21.05;;;;;;;24.53;35.80;100881.50;4873041;29;20056;-74
2022/05/16 10:25:48;;;;;;;54.53;20.67;;;;;;;25.04;36.91;100888.66;4890067;29;20048;-74
2022/05/16 10:28:24;;;;;;;63.28;24.63;;;;;;;26.32;37.15;100885.22;4892115;29;20101;-78
2022/05/16 10:33:52;;;;;;;73.20;23.33;;;;;;;26.08;35.75;100918.91;4894984;29;20453;-74
2022/05/16 10:36:25;;;;;;;59.00;20.20;;;;;;;26.12;37.66;100920.47;4902647;29;20047;-74
2022/05/16 10:39:05;;;;;;;62.90;22.05;;;;;;;26.31;35.83;100877.22;4898332;29;20100;-75
2022/05/16 10:41:45;;;;;;;68.75;23.75;;;;;;;25.78;36.67;100887.41;4895489;29;20052;-77
2022/05/16 10:44:47;;;;;;;46.40;14.90;;;;;;;25.98;36.97;100913.19;4905036;29;20068;-74
2022/05/16 10:47:21;;;;;;;48.50;19.77;;;;;;;25.30;37.03;100853.34;4894207;29;20053;-76
2022/05/16 10:49:49;;;;;;;55.35;19.55;;;;;;;25.58;35.57;100869.69;4895232;29;21252;-74
2022/05/16 10:52:27;;;;;;;37.70;16.00;;;;;;;26.39;35.48;100853.44;4892777;29;21008;-76
2022/05/16 10:54:53;;;;;;;36.53;13.20;;;;;;;27.23;35.83;100900.50;4893117;29;20079;-76
2022/05/16 10:57:39;;;;;;;67.20;21.20;;;;;;;27.20;34.64;100844.13;4897538;29;20449;-77
2022/05/16 11:00:19;;;;;;;60.22;20.15;;;;;;;26.86;36.32;100882.06;4897953;29;20040;-78
2022/05/16 11:03:00;;;;;;;39.85;17.33;;;;;;;25.94;35.59;100852.44;4898191;29;20548;-76
2022/05/16 11:05:54;;;;;;;46.78;16.73;;;;;;;27.02;36.50;100838.00;4893527;29;20076;-79
2022/05/16 11:08:32;;;;;;;313.70;133.00;;;;;;;27.63;34.96;100881.81;4897134;29;20048;-77
2022/05/16 11:11:25;;;;;;;58.85;19.83;;;;;;;27.41;34.03;100837.38;4893701;29;20501;-76
2022/05/16 11:14:09;;;;;;;;;;;;;;;26.65;34.15;100835.75;4895072;29;20052;-78
2022/05/16 11:16:38;;;;;;;58.45;21.55;;;;;;;25.85;34.79;100853.84;4886698;29;19923;-75
2022/05/16 11:19:38;;;;;;;35.17;12.98;;;;;;;25.85;35.92;100836.84;4905905;29;20604;-76
2022/05/16 11:22:24;;;;;;;36.30;13.25;;;;;;;26.56;34.98;100828.25;4893475;29;20052;-76
2022/05/16 11:25:01;;;;;;;46.83;18.65;;;;;;;26.20;35.34;100815.09;4909751;29;20053;-75
2022/05/16 11:27:40;;;;;;;41.28;16.02;;;;;;;25.46;35.39;100851.56;4890204;29;20507;-74
2022/05/16 11:30:13;;;;;;;36.10;13.80;;;;;;;25.44;36.19;100845.38;4895177;29;20039;-76
2022/05/16 11:33:01;;;;;;;36.67;12.10;;;;;;;26.09;35.38;100811.22;4880735;29;20175;-77
2022/05/16 11:35:49;;;;;;;46.42;13.57;;;;;;;26.21;35.33;100795.34;4899327;29;20139;-76
2022/05/16 11:38:40;;;;;;;52.83;18.45;;;;;;;26.30;35.99;100794.78;4897282;29;20049;-77
2022/05/16 11:41:43;;;;;;;49.78;14.93;;;;;;;25.74;34.97;100785.50;4897684;29;20151;-76
2022/05/16 11:44:28;;;;;;;35.88;14.80;;;;;;;26.18;36.30;100792.84;4893773;29;20056;-77
2022/05/16 11:47:33;;;;;;;40.35;13.27;;;;;;;25.76;36.28;100789.81;4895444;29;20063;-76
2022/05/16 11:50:16;;;;;;;43.97;13.70;;;;;;;26.23;35.87;100793.41;4885369;29;20157;-75
2022/05/16 11:53:16;;;;;;;49.80;19.67;;;;;;;25.68;35.37;100810.88;4891313;29;20068;-76
2022/05/16 12:01:44;;;;;;;58.58;26.17;;;;;;;27.05;34.32;100806.38;4897550;29;20071;-76
2022/05/16 12:04:11;;;;;;;21.63;10.30;;;;;;;26.67;35.43;100755.78;4888480;29;20051;-75
2022/05/16 12:06:44;;;;;;;30.65;16.42;;;;;;;25.97;34.64;100755.47;4899058;29;21317;-79
2022/05/16 12:09:25;;;;;;;411.13;185.68;;;;;;;26.52;35.35;100770.13;4895854;29;20075;-75
2022/05/16 12:12:01;;;;;;;21.80;11.35;;;;;;;26.01;35.02;100773.19;4896288;29;20052;-79
2022/05/16 12:14:34;;;;;;;26.20;12.93;;;;;;;26.41;35.56;100727.75;4908977;29;20055;-75
2022/05/16 12:17:30;;;;;;;24.80;12.73;;;;;;;27.03;34.94;100754.41;4906677;29;21336;-77
2022/05/16 12:20:11;;;;;;;30.42;18.17;;;;;;;26.13;34.58;100727.66;4890432;29;20056;-75
2022/05/16 12:22:37;;;;;;;20.45;9.98;;;;;;;26.81;36.08;100763.00;4895775;29;20052;-77
2022/05/16 12:25:21;;;;;;;16.42;5.80;;;;;;;25.87;35.47;100732.75;4896952;29;20044;-76
2022/05/16 12:28:09;;;;;;;13.70;7.75;;;;;;;26.53;35.90;100744.97;4893228;29;20151;-76
2022/05/16 12:30:57;;;;;;;12.48;6.53;;;;;;;26.26;35.86;100744.81;4897278;29;20051;-75
2022/05/16 12:33:41;;;;;;;9.45;4.93;;;;;;;25.91;35.83;100742.38;4892748;29;20044;-75
2022/05/16 12:36:15;;;;;;;15.10;5.55;;;;;;;25.28;35.99;100692.22;4895323;29;20059;-74
2022/05/16 12:38:43;;;;;;;6.97;3.83;;;;;;;25.76;36.15;100728.00;4892610;29;20532;-73
2022/05/16 12:41:51;;;;;;;22.25;8.60;;;;;;;25.61;35.85;100685.88;4899976;29;20044;-73
2022/05/16 12:44:34;;;;;;;15.00;8.02;;;;;;;26.06;36.81;100695.75;4899239;29;20074;-73
2022/05/16 12:47:27;;;;;;;17.05;7.90;;;;;;;26.24;37.61;100703.66;4893266;29;20079;-73
2022/05/16 12:50:18;;;;;;;10.80;6.75;;;;;;;26.26;36.38;100673.00;4889033;29;20040;-74
2022/05/16 12:53:08;;;;;;;10.77;5.25;;;;;;;25.72;36.73;100690.63;4889093;29;20048;-75
2022/05/16 12:56:12;;;;;;;6.43;3.85;;;;;;;25.76;36.88;100662.63;4892873;29;20046;-75
2022/05/16 12:58:51;;;;;;;10.48;5.97;;;;;;;26.37;38.40;100696.59;4891059;29;20063;-77
2022/05/16 13:01:16;;;;;;;10.82;5.95;;;;;;;25.59;37.45;100663.59;4891990;29;20136;-77
2022/05/16 13:03:48;;;;;;;15.50;5.90;;;;;;;25.67;37.22;100653.25;4890452;29;20060;-77
2022/05/16 13:06:39;;;;;;;9.88;4.38;;;;;;;26.17;37.12;100692.41;4889954;29;20044;-76
2022/05/16 13:09:11;;;;;;;7.50;4.90;;;;;;;25.57;37.89;100654.78;4890632;29;20175;-76
2022/05/16 13:12:23;;;;;;;8.82;4.53;;;;;;;25.80;36.50;100682.97;4895113;29;20071;-79
2022/05/16 13:15:26;;;;;;;8.02;5.38;;;;;;;26.13;36.84;100672.06;4891424;29;20528;-75
2022/05/16 13:17:58;;;;;;;8.18;4.43;;;;;;;25.90;37.34;100633.97;4893112;29;20060;-78
2022/05/16 13:20:44;;;;;;;10.98;6.18;;;;;;;25.76;36.38;100638.41;4875362;29;22302;-74
2022/05/16 13:23:13;;;;;;;12.75;7.25;;;;;;;25.77;36.50;100642.81;4892622;29;20569;-75
2022/05/16 13:31:14;;;;;;;19.00;9.23;;;;;;;25.60;42.43;100660.81;4890395;29;20058;-76
2022/05/16 13:33:40;;;;;;;14.30;7.70;;;;;;;25.47;39.24;100641.00;4889712;29;20420;-75
2022/05/16 13:36:18;;;;;;;10.93;7.10;;;;;;;25.33;42.29;100644.47;4887194;29;20056;-75
2022/05/16 13:38:46;;;;;;;17.35;8.77;;;;;;;24.69;42.96;100648.09;4886802;29;20718;-75
2022/05/16 13:41:24;;;;;;;44.15;38.65;;;;;;;24.74;42.47;100691.66;4890293;29;20500;-75
2022/05/16 13:43:50;;;;;;;33.90;25.38;;;;;;;25.10;43.16;100648.47;4907151;29;20052;-76
2022/05/16 13:46:16;;;;;;;16.83;7.65;;;;;;;25.59;36.78;100642.97;4887373;29;20052;-74
2022/05/16 13:48:42;;;;;;;26.75;15.75;;;;;;;25.37;38.72;100646.03;4889863;29;20398;-73
2022/05/16 13:51:10;;;;;;;20.98;12.43;;;;;;;25.66;35.86;100646.13;4888691;29;20040;-73
2022/05/16 13:53:37;;;;;;;13.18;7.50;;;;;;;25.32;35.85;100661.56;4883514;29;20048;-73
2022/05/16 13:56:03;;;;;;;31.63;26.52;;;;;;;25.31;41.32;100653.59;4889276;29;20060;-74
2022/05/16 13:58:32;;;;;;;11.48;7.90;;;;;;;25.49;36.35;100660.56;4890933;29;20100;-74
2022/05/16 14:01:20;;;;;;;17.23;7.70;;;;;;;25.56;35.52;100648.50;4888316;29;20052;-74
2022/05/16 14:03:55;;;;;;;17.35;9.43;;;;;;;25.85;35.20;100645.94;4886664;29;20344;-75
2022/05/16 14:06:37;;;;;;;18.17;7.68;;;;;;;25.85;34.82;100632.50;4889709;29;20048;-73
2022/05/16 14:09:12;;;;;;;17.95;9.88;;;;;;;26.08;34.04;100637.38;4888749;29;20059;-73
2022/05/16 14:11:38;;;;;;;15.95;8.25;;;;;;;25.20;36.20;100652.38;4892231;29;20056;-73
2022/05/16 14:14:05;;;;;;;14.23;8.68;;;;;;;25.41;34.87;100633.31;4902160;29;21664;-75
2022/05/16 14:16:38;;;;;;;15.30;6.70;;;;;;;25.52;33.53;100638.03;4890731;29;20143;-73
2022/05/16 14:19:10;;;;;;;13.68;8.73;;;;;;;25.21;35.47;100640.69;4886172;29;20052;-72
2022/05/16 14:21:58;;;;;;;25.38;19.85;;;;;;;25.02;40.15;100674.88;4888303;29;20127;-74
2022/05/16 14:24:31;;;;;;;39.17;31.98;;;;;;;23.90;45.83;100646.00;4886488;29;20045;-72
2022/05/16 14:26:56;;;;;;;;;;;;;;;23.76;40.53;100644.03;4886013;29;20036;-72
2022/05/16 14:29:29;;;;;;;13.93;9.75;;;;;;;24.68;41.08;100657.97;4892753;29;20467;-77
2022/05/16 14:32:14;;;;;;;;;;;;;;;24.28;43.86;100627.03;4885950;29;20528;-75
2022/05/16 14:34:44;;;;;;;28.65;14.25;;;;;;;24.45;43.98;100629.69;4883800;29;19927;-73
2022/05/16 14:37:09;;;;;;;16.63;8.68;;;;;;;25.19;37.08;100663.22;4886286;29;20051;-73
2022/05/16 14:39:52;;;;;;;11.73;7.43;;;;;;;25.39;36.93;100635.22;4884403;29;20554;-79
2022/05/16 14:42:22;;;;;;;11.90;7.43;;;;;;;25.77;37.27;100683.16;4901704;29;20036;-78
2022/05/16 14:45:13;;;;;;;17.90;9.45;;;;;;;25.66;37.86;100670.34;4890034;29;20040;-79
2022/05/16 14:47:42;;;;;;;15.75;7.50;;;;;;;25.51;38.76;100668.56;4889376;29;20121;-78
2022/05/16 14:50:15;;;;;;;19.42;7.40;;;;;;;25.35;35.78;100644.41;4891422;29;20051;-78
2022/05/16 14:53:05;;;;;;;14.35;7.65;;;;;;;25.43;36.06;100632.25;4886649;29;20048;-77
2022/05/16 14:55:45;;;;;;;9.82;5.63;;;;;;;25.68;36.61;100665.72;4891401;29;20044;-78
2022/05/16 14:58:23;;;;;;;9.07;5.30;;;;;;;25.63;36.09;100665.16;4883483;29;20114;-78
2022/05/16 15:06:23;;;;;;;15.38;6.63;;;;;;;25.66;36.29;100647.03;4875032;29;20042;-73
2022/05/16 15:08:51;;;;;;;23.38;13.20;;;;;;;24.89;41.24;100644.28;4885472;29;20048;-72
2022/05/16 15:11:21;;;;;;;22.73;15.30;;;;;;;24.79;39.01;100620.66;4886687;29;20036;-73
2022/05/16 15:13:47;;;;;;;18.33;10.15;;;;;;;25.19;37.95;100604.13;4887546;29;20051;-74
2022/05/16 15:16:13;;;;;;;17.35;9.75;;;;;;;24.84;38.19;100593.53;4891642;29;20134;-74
2022/05/16 15:18:39;;;;;;;23.13;10.98;;;;;;;25.43;37.17;100624.19;4884002;29;20055;-74
2022/05/16 15:21:06;;;;;;;29.92;20.17;;;;;;;24.27;44.91;100611.88;4895344;29;20044;-73
2022/05/16 15:23:33;;;;;;;19.42;11.32;;;;;;;24.36;38.75;100603.34;4885104;29;20512;-73
2022/05/16 15:26:00;;;;;;;45.05;15.85;;;;;;;24.73;40.23;100618.31;4885303;29;20048;-74
2022/05/16 15:28:26;;;;;;;18.10;12.60;;;;;;;24.78;41.96;100591.22;4884770;29;20111;-73
2022/05/16 15:30:52;;;;;;;15.10;8.18;;;;;;;25.16;37.36;100625.75;4889254;29;20048;-73
2022/05/16 15:33:18;;;;;;;18.42;10.98;;;;;;;25.16;39.35;100591.72;4880335;29;20144;-74
2022/05/16 15:35:46;;;;;;;14.82;10.50;;;;;;;25.20;38.81;100590.63;4885040;29;20127;-73
2022/05/16 15:38:14;;;;;;;26.13;14.13;;;;;;;23.86;43.87;100593.50;4887719;29;20076;-74
2022/05/16 15:40:42;;;;;;;23.88;10.45;;;;;;;24.93;38.51;100613.63;4899544;29;20056;-74
2022/05/16 15:43:09;;;;;;;19.42;10.40;;;;;;;25.23;36.42;100590.41;4884664;29;25174;-73
2022/05/16 15:45:37;;;;;;;17.90;11.75;;;;;;;25.07;37.67;100624.47;4886339;29;20047;-73
2022/05/16 15:48:09;;;;;;;18.92;11.65;;;;;;;25.32;38.51;100599.78;4880698;29;20064;-73
2022/05/16 15:50:36;;;;;;;16.97;11.40;;;;;;;25.65;35.19;100620.22;4887068;29;20044;-73
2022/05/16 15:53:03;;;;;;;25.52;13.40;;;;;;;25.39;35.20;100582.34;4894675;29;20052;-73
2022/05/16 15:55:29;;;;;;;13.45;9.52;;;;;;;25.55;34.80;100571.53;4876219;29;20131;-73
2022/05/16 15:57:55;;;;;;;13.43;7.53;;;;;;;25.39;34.49;100586.84;4881349;29;20052;-73
2022/05/16 16:00:28;;;;;;;20.08;8.05;;;;;;;25.14;35.16;100572.13;4899650;29;21201;-72
2022/05/16 16:02:56;;;;;;;17.45;8.18;;;;;;;25.19;35.23;100622.91;4885963;29;20095;-74
2022/05/16 16:10:47;;;;;;;15.80;11.43;;;;;;;25.05;39.50;100569.97;4879864;29;20091;-74
2022/05/16 16:13:15;;;;;;;18.67;9.95;;;;;;;24.29;39.73;100565.25;4879876;29;20063;-72
2022/05/16 16:15:41;;;;;;;16.25;8.63;;;;;;;24.49;39.91;100566.91;4882743;29;21903;-72
2022/05/16 16:18:07;;;;;;;13.43;6.70;;;;;;;24.73;37.84;100558.41;4867251;29;20036;-73
2022/05/16 16:20:33;;;;;;;12.57;5.35;;;;;;;24.97;37.85;100558.81;4885224;29;20512;-73
2022/05/16 16:23:00;;;;;;;13.38;6.72;;;;;;;25.07;38.30;100565.38;4885787;29;20135;-80
2022/05/16 16:25:26;;;;;;;22.33;8.70;;;;;;;25.15;38.96;100589.13;4886604;29;20059;-74
2022/05/16 16:27:53;;;;;;;15.38;7.90;;;;;;;25.11;38.44;100571.44;4887887;29;20428;-74
2022/05/16 16:30:21;;;;;;;23.17;10.68;;;;;;;25.01;39.50;100563.94;4884114;29;20151;-74
2022/05/16 16:32:48;;;;;;;13.75;10.73;;;;;;;24.15;43.45;100563.34;4884705;29;20044;-74
2022/05/16 16:35:14;;;;;;;20.55;9.32;;;;;;;24.59;40.20;100599.44;4894980;29;20461;-74
2022/05/16 16:37:41;;;;;;;26.10;11.70;;;;;;;24.06;47.58;100576.38;4880892;29;20057;-73
2022/05/16 16:40:08;;;;;;;9.68;6.18;;;;;;;24.23;41.63;100595.97;4887713;29;20048;-75
2022/05/16 16:42:38;;;;;;;17.73;8.07;;;;;;;23.95;42.02;100561.75;4866420;29;20028;-73
2022/05/16 16:45:06;;;;;;;13.57;7.40;;;;;;;24.12;40.70;100574.22;4877312;29;20036;-74
2022/05/16 16:47:35;;;;;;;14.45;9.77;;;;;;;24.21;44.45;100603.22;4883411;29;20060;-74
2022/05/16 16:50:01;;;;;;;15.13;10.00;;;;;;;23.82;49.03;100606.22;4883277;29;20054;-74
2022/05/16 16:57:56;;;;;;;18.15;11.80;;;;;;;23.32;50.68;100610.50;4885907;29;20082;-75
2022/05/16 17:00:23;;;;;;;12.88;6.07;;;;;;;24.09;45.29;100611.06;4888753;29;20035;-74
2022/05/16 17:02:55;;;;;;;17.40;7.55;;;;;;;23.64;47.25;100573.16;4889269;29;20092;-73
2022/05/16 17:05:23;;;;;;;18.20;7.77;;;;;;;23.73;47.09;100587.88;4879332;29;20065;-73
2022/05/16 17:07:53;;;;;;;22.63;10.00;;;;;;;23.64;49.88;100604.44;4885262;29;20063;-75
2022/05/16 17:10:23;;;;;;;19.77;12.98;;;;;;;23.67;50.08;100596.22;4904436;29;20087;-73
2022/05/16 17:12:49;;;;;;;29.08;12.63;;;;;;;23.38;48.21;100566.47;4885830;29;20048;-74
2022/05/16 17:15:15;;;;;;;23.65;11.18;;;;;;;23.53;47.41;100587.13;4887475;29;20733;-73
2022/05/16 17:17:43;;;;;;;23.20;10.48;;;;;;;23.36;49.95;100579.91;4884374;29;20044;-75
2022/05/16 17:20:13;;;;;;;16.70;10.20;;;;;;;23.03;52.44;100605.69;4878846;29;20053;-74
2022/05/16 17:22:40;;;;;;;17.10;9.27;;;;;;;23.21;51.49;100617.31;4886263;29;20139;-73
2022/05/16 17:25:07;;;;;;;19.42;9.90;;;;;;;22.82;52.06;100580.81;4892018;29;20494;-73
2022/05/16 17:27:33;;;;;;;15.18;9.00;;;;;;;22.78;52.84;100588.13;4886359;29;20052;-74
2022/05/16 17:29:59;;;;;;;21.23;10.05;;;;;;;22.66;53.00;100591.38;4884066;29;20039;-74
2022/05/16 17:32:25;;;;;;;13.20;8.45;;;;;;;22.64;53.04;100579.88;4903241;29;20059;-75
2022/05/16 17:34:50;;;;;;;17.15;9.60;;;;;;;22.94;51.81;100591.81;4884873;29;20044;-74
2022/05/16 17:37:16;;;;;;;18.30;10.00;;;;;;;22.71;53.25;100594.69;4887063;29;20044;-74
2022/05/16 17:39:42;;;;;;;13.25;8.68;;;;;;;22.73;53.61;100619.56;4886926;29;20048;-74
2022/05/16 17:42:10;;;;;;;18.83;10.65;;;;;;;22.70;52.70;100598.31;4874867;29;20036;-74
2022/05/16 17:44:35;;;;;;;16.17;8.45;;;;;;;23.06;52.11;100630.53;4882920;29;20059;-74
2022/05/16 17:47:01;;;;;;;18.77;11.02;;;;;;;22.61;53.13;100578.22;4888908;29;20084;-74
2022/05/16 17:49:28;;;;;;;16.33;9.52;;;;;;;22.64;52.98;100609.28;4886482;29;20076;-74
2022/05/16 17:51:54;;;;;;;19.75;9.05;;;;;;;22.57;53.25;100591.81;4886760;29;20067;-75
2022/05/16 17:54:30;;;;;;;25.10;10.32;;;;;;;22.63;51.93;100583.50;4887845;29;20070;-74
2022/05/16 17:56:57;;;;;;;21.67;10.70;;;;;;;23.07;49.85;100637.59;4893948;29;20044;-76
2022/05/16 17:59:27;;;;;;;19.58;10.30;;;;;;;23.25;49.37;100637.63;4893542;29;20064;-75
2022/05/16 18:01:58;;;;;;;20.48;10.02;;;;;;;23.01;49.17;100605.75;4885315;29;20100;-74
2022/05/16 18:04:25;;;;;;;28.52;8.85;;;;;;;23.22;49.12;100646.69;4891173;29;20053;-76
2022/05/16 18:06:51;;;;;;;21.80;7.80;;;;;;;23.09;49.40;100622.34;4893053;29;20064;-75
2022/05/16 18:09:18;;;;;;;27.48;9.77;;;;;;;22.87;49.65;100619.78;4878387;29;20565;-74
2022/05/16 18:14:31;;;;;;;25.80;8.27;;;;;;;22.73;49.79;100615.09;4890428;29;20060;-75
2022/05/16 18:17:00;;;;;;;20.40;11.40;;;;;;;23.00;49.98;100662.06;4893158;29;20089;-74
2022/05/16 18:19:26;;;;;;;20.95;8.80;;;;;;;22.64;50.14;100617.31;4892082;29;20052;-75
2022/05/16 18:21:52;;;;;;;22.08;10.32;;;;;;;22.68;50.11;100618.91;4892294;29;20040;-75
2022/05/16 18:24:18;;;;;;;15.07;8.05;;;;;;;22.64;50.85;100636.94;4894751;29;20123;-74
2022/05/16 18:26:46;;;;;;;19.42;9.45;;;;;;;22.64;50.10;100631.59;4887917;29;20571;-76
2022/05/16 18:29:13;;;;;;;18.08;10.05;;;;;;;22.58;50.48;100626.50;4889047;29;20140;-76
2022/05/16 18:31:40;;;;;;;17.38;7.90;;;;;;;22.48;50.42;100631.41;4891734;29;20055;-75
2022/05/16 18:34:06;;;;;;;17.77;7.30;;;;;;;22.78;51.12;100681.78;4893783;29;20052;-76
2022/05/16 18:36:32;;;;;;;18.02;8.40;;;;;;;22.41;51.67;100643.34;4887990;29;20030;-75
2022/05/16 18:39:01;;;;;;;17.13;8.77;;;;;;;22.64;51.85;100678.84;4906715;29;20116;-75
2022/05/16 18:50:43;;;;;;;18.17;8.52;;;;;;;22.60;51.99;100683.50;4894916;29;20056;-75
2022/05/16 18:52:30;;;;;;;18.58;9.05;;;;;;;22.48;51.96;100676.88;4888081;29;20055;-75
2022/05/16 18:54:56;;;;;;;17.05;10.45;;;;;;;22.32;52.52;100670.50;4891432;29;20044;-75
2022/05/16 18:57:21;;;;;;;19.45;9.68;;;;;;;22.14;52.45;100640.91;4888854;29;20036;-75
2022/05/16 18:59:47;;;;;;;21.33;10.27;;;;;;;22.15;52.86;100641.81;4892439;29;20454;-75
2022/05/16 19:02:13;;;;;;;13.07;8.55;;;;;;;22.02;53.33;100646.81;4890386;29;20059;-75
2022/05/16 19:04:38;;;;;;;19.13;9.30;;;;;;;21.99;53.27;100638.06;4894972;29;20064;-74
2022/05/16 19:07:04;;;;;;;14.73;6.55;;;;;;;22.00;53.57;100643.34;4885970;29;20658;-77
2022/05/16 19:09:29;;;;;;;15.93;7.13;;;;;;;22.21;53.68;100678.13;4886044;29;20044;-77
2022/05/16 19:11:56;;;;;;;12.57;6.80;;;;;;;22.22;53.82;100675.38;4888466;29;20778;-78
2022/05/16 19:14:22;;;;;;;10.85;6.65;;;;;;;22.15;54.09;100687.25;4886651;29;20052;-77
2022/05/16 19:16:47;;;;;;;14.27;8.00;;;;;;;22.14;54.03;100673.00;4883980;29;20040;-77
2022/05/16 19:19:16;;;;;;;16.50;6.47;;;;;;;22.14;54.02;100678.34;4882886;29;20108;-78
2022/05/16 19:21:42;;;;;;;15.20;7.30;;;;;;;22.34;54.12;100690.88;4877063;29;20065;-78
2022/05/16 19:24:09;;;;;;;11.25;6.85;;;;;;;22.30;53.90;100686.59;4886834;29;20052;-79
2022/05/16 19:26:36;;;;;;;11.35;7.03;;;;;;;22.17;54.20;100688.03;4887904;29;20056;-77
2022/05/16 19:31:58;;;;;;;13.95;8.02;;;;;;;21.75;54.73;100638.22;4884487;29;20062;-78
2022/05/16 19:34:25;;;;;;;22.83;8.93;;;;;;;21.77;55.55;100667.50;4849936;29;20057;-79
2022/05/16 19:37:07;;;;;;;15.25;9.52;;;;;;;21.98;54.56;100682.63;4861988;29;20052;-90
2022/05/16 19:39:36;;;;;;;13.10;8.32;;;;;;;21.64;54.60;100630.63;4865114;29;20481;-76
2022/05/16 19:42:04;;;;;;;25.52;8.10;;;;;;;21.93;54.88;100684.63;4837559;29;20048;-77
2022/05/16 19:44:30;;;;;;;15.65;7.70;;;;;;;21.89;55.13;100677.66;4865995;29;20250;-77
2022/05/16 19:46:56;;;;;;;19.50;8.18;;;;;;;21.73;56.14;100682.81;4864948;29;20604;-77
2022/05/16 19:49:23;;;;;;;19.85;8.25;;;;;;;21.48;57.13;100670.47;4872465;29;20105;-76
2022/05/16 19:51:49;;;;;;;18.60;7.22;;;;;;;21.50;56.70;100676.63;4869782;29;20052;-78
2022/05/16 19:54:17;;;;;;;11.55;7.13;;;;;;;21.41;57.28;100668.97;4867209;29;20036;-77
2022/05/16 19:56:47;;;;;;;15.65;9.18;;;;;;;21.53;56.34;100680.97;4872299;29;20124;-76
2022/05/16 19:59:18;;;;;;;13.27;9.27;;;;;;;21.20;57.05;100633.31;4871205;29;20580;-76
2022/05/16 20:01:46;;;;;;;18.55;10.95;;;;;;;21.21;57.08;100632.41;4874539;29;20065;-75
2022/05/16 20:04:13;;;;;;;16.67;10.38;;;;;;;21.14;57.52;100636.25;4869175;29;20044;-75
2022/05/16 20:06:40;;;;;;;23.23;10.60;;;;;;;21.46;56.77;100669.66;4866799;29;20101;-74
2022/05/16 20:09:07;;;;;;;17.77;12.52;;;;;;;21.47;57.21;100679.41;4870033;29;20051;-74
2022/05/16 20:11:45;;;;;;;12.82;10.48;;;;;;;21.08;57.58;100647.16;4864392;29;20071;-74
2022/05/16 20:14:13;;;;;;;13.90;8.45;;;;;;;21.08;57.23;100629.34;4864894;29;20053;-73
2022/05/16 20:16:41;;;;;;;15.20;9.40;;;;;;;21.12;57.74;100634.53;4871605;29;20321;-75
2022/05/16 20:19:06;;;;;;;25.58;7.63;;;;;;;21.37;57.83;100666.47;4871021;29;20044;-75
2022/05/16 20:21:32;;;;;;;13.98;9.32;;;;;;;;;;4872299;29;20044;-74
2022/05/16 20:26:42;;;;;;;17.40;8.93;;;;;;;21.39;57.84;100672.59;4860515;29;20544;-75
2022/05/16 20:29:09;;;;;;;15.82;9.50;;;;;;;21.40;58.47;100677.03;4852048;29;20140;-76
2022/05/16 20:31:37;;;;;;;15.02;8.98;;;;;;;21.00;58.52;100628.78;4869478;29;20072;-75
2022/05/16 20:34:05;;;;;;;20.23;10.13;;;;;;;21.14;58.13;100633.59;4881967;29;20047;-75
2022/05/16 20:36:31;;;;;;;10.95;8.10;;;;;;;21.02;58.76;100639.38;4889214;29;20048;-75
2022/05/16 20:38:57;;;;;;;18.90;9.10;;;;;;;21.28;58.97;100667.69;4896618;29;20092;-77
2022/05/16 20:41:23;;;;;;;21.75;9.77;;;;;;;21.02;59.66;100669.59;4890403;29;20180;-75
2022/05/16 20:43:50;;;;;;;11.93;6.65;;;;;;;21.03;59.85;100667.81;4890354;29;20527;-75
2022/05/16 20:46:25;;;;;;;11.82;7.03;;;;;;;20.92;60.00;100668.22;4891657;29;20048;-75
2022/05/16 20:48:51;;;;;;;18.52;7.07;;;;;;;20.86;60.02;100671.13;4903779;29;20059;-75
2022/05/16 20:51:17;;;;;;;11.13;7.45;;;;;;;20.57;60.00;100622.44;4893034;29;20088;-74
2022/05/16 20:53:43;;;;;;;10.02;7.05;;;;;;;20.87;60.23;100671.06;4893280;29;20057;-74
2022/05/16 20:56:09;;;;;;;13.23;6.45;;;;;;;20.77;60.33;100671.50;4905006;29;20049;-75
2022/05/16 20:58:35;;;;;;;8.35;5.10;;;;;;;20.95;60.27;100678.78;4880446;29;20133;-74
2022/05/16 21:01:03;;;;;;;16.83;7.32;;;;;;;20.68;60.22;100630.06;4890418;29;20056;-75
2022/05/16 21:03:30;;;;;;;10.90;6.00;;;;;;;20.36;61.11;100621.41;4896161;29;20087;-76
2022/05/16 21:05:57;;;;;;;7.75;5.93;;;;;;;20.71;60.77;100672.59;4898545;29;20045;-74